sensor_id;sensor_type;location;lat;lon;timestamp;P1;durP1;ratioP1;P2;durP2;ratioP2
57593;SDS011;43423;46.510;6.686;2023-07-31T00:00:10;4.60;;;1.30;;
57593;SDS011;43423;46.510;6.686;2023-07-31T00:02:56;4.38;;;1.70;;
57593;SDS011;43423;46.510;6.686;2023-07-31T00:05:22;5.50;;;1.65;;
57593;SDS011;43423;46.510;6.686;2023-07-31T00:07:47;7.15;;;2.03;;
57593;SDS011;43423;46.510;6.686;2023-07-31T00:10:13;3.72;;;1.63;;
57593;SDS011;43423;46.510;6.686;2023-07-31T00:12:39;4.00;;;1.58;;
57593;SDS011;43423;46.510;6.686;2023-07-31T00:15:07;2.58;;;1.92;;
57593;SDS011;43423;46.510;6.686;2023-07-31T00:17:33;4.22;;;1.90;;
57593;SDS011;43423;46.510;6.686;2023-07-31T00:19:59;2.40;;;1.60;;
57593;SDS011;43423;46.510;6.686;2023-07-31T00:22:25;3.35;;;1.40;;
57593;SDS011;43423;46.510;6.686;2023-07-31T00:24:50;5.03;;;1.48;;
57593;SDS011;43423;46.510;6.686;2023-07-31T00:27:16;4.75;;;1.80;;
57593;SDS011;43423;46.510;6.686;2023-07-31T00:29:42;5.07;;;1.77;;
57593;SDS011;43423;46.510;6.686;2023-07-31T00:32:07;4.85;;;1.73;;
57593;SDS011;43423;46.510;6.686;2023-07-31T00:34:33;2.83;;;1.35;;
57593;SDS011;43423;46.510;6.686;2023-07-31T00:36:58;5.28;;;1.92;;
57593;SDS011;43423;46.510;6.686;2023-07-31T00:39:24;2.97;;;1.67;;
57593;SDS011;43423;46.510;6.686;2023-07-31T00:41:50;5.13;;;1.70;;
57593;SDS011;43423;46.510;6.686;2023-07-31T00:44:15;4.15;;;1.65;;
57593;SDS011;43423;46.510;6.686;2023-07-31T00:46:41;7.05;;;1.90;;
57593;SDS011;43423;46.510;6.686;2023-07-31T00:49:07;1.88;;;1.42;;
57593;SDS011;43423;46.510;6.686;2023-07-31T00:51:34;3.53;;;1.48;;
57593;SDS011;43423;46.510;6.686;2023-07-31T00:53:59;8.25;;;3.08;;
57593;SDS011;43423;46.510;6.686;2023-07-31T00:56:26;6.45;;;1.80;;
57593;SDS011;43423;46.510;6.686;2023-07-31T00:58:53;3.58;;;1.50;;
57593;SDS011;43423;46.510;6.686;2023-07-31T01:01:18;2.35;;;1.67;;
57593;SDS011;43423;46.510;6.686;2023-07-31T01:03:44;6.38;;;1.60;;
57593;SDS011;43423;46.510;6.686;2023-07-31T01:09:14;1.75;;;1.40;;
57593;SDS011;43423;46.510;6.686;2023-07-31T01:11:53;4.00;;;1.55;;
57593;SDS011;43423;46.510;6.686;2023-07-31T01:14:22;5.80;;;1.88;;
57593;SDS011;43423;46.510;6.686;2023-07-31T01:16:48;2.92;;;1.63;;
57593;SDS011;43423;46.510;6.686;2023-07-31T01:19:17;4.88;;;2.10;;
57593;SDS011;43423;46.510;6.686;2023-07-31T01:27:35;4.53;;;1.73;;
57593;SDS011;43423;46.510;6.686;2023-07-31T01:30:14;4.57;;;1.38;;
57593;SDS011;43423;46.510;6.686;2023-07-31T01:32:42;3.67;;;1.55;;
57593;SDS011;43423;46.510;6.686;2023-07-31T01:35:10;5.55;;;1.77;;
57593;SDS011;43423;46.510;6.686;2023-07-31T01:37:36;5.43;;;1.60;;
57593;SDS011;43423;46.510;6.686;2023-07-31T01:40:02;3.63;;;1.75;;
57593;SDS011;43423;46.510;6.686;2023-07-31T01:42:29;3.03;;;1.50;;
57593;SDS011;43423;46.510;6.686;2023-07-31T01:44:55;5.13;;;1.77;;
57593;SDS011;43423;46.510;6.686;2023-07-31T01:47:21;3.40;;;1.50;;
57593;SDS011;43423;46.510;6.686;2023-07-31T01:49:46;9.75;;;2.97;;
57593;SDS011;43423;46.510;6.686;2023-07-31T01:52:12;4.07;;;2.00;;
57593;SDS011;43423;46.510;6.686;2023-07-31T01:54:37;3.45;;;1.50;;
57593;SDS011;43423;46.510;6.686;2023-07-31T01:57:03;4.68;;;1.60;;
57593;SDS011;43423;46.510;6.686;2023-07-31T01:59:29;6.00;;;1.50;;
57593;SDS011;43423;46.510;6.686;2023-07-31T02:01:55;3.78;;;1.40;;
57593;SDS011;43423;46.510;6.686;2023-07-31T02:04:20;3.22;;;1.90;;
57593;SDS011;43423;46.510;6.686;2023-07-31T02:06:46;4.47;;;1.75;;
57593;SDS011;43423;46.510;6.686;2023-07-31T02:09:11;3.13;;;1.55;;
57593;SDS011;43423;46.510;6.686;2023-07-31T02:11:37;4.65;;;1.55;;
57593;SDS011;43423;46.510;6.686;2023-07-31T02:14:02;5.03;;;1.60;;
57593;SDS011;43423;46.510;6.686;2023-07-31T02:16:28;4.15;;;1.67;;
57593;SDS011;43423;46.510;6.686;2023-07-31T02:18:53;7.07;;;1.80;;
57593;SDS011;43423;46.510;6.686;2023-07-31T02:21:19;3.22;;;1.60;;
57593;SDS011;43423;46.510;6.686;2023-07-31T02:23:44;3.08;;;1.70;;
57593;SDS011;43423;46.510;6.686;2023-07-31T02:26:10;2.40;;;1.77;;
57593;SDS011;43423;46.510;6.686;2023-07-31T02:28:35;3.05;;;1.60;;
57593;SDS011;43423;46.510;6.686;2023-07-31T02:31:01;6.18;;;2.00;;
57593;SDS011;43423;46.510;6.686;2023-07-31T02:33:27;3.33;;;1.60;;
57593;SDS011;43423;46.510;6.686;2023-07-31T02:35:52;5.18;;;1.50;;
57593;SDS011;43423;46.510;6.686;2023-07-31T02:38:18;5.07;;;1.75;;
57593;SDS011;43423;46.510;6.686;2023-07-31T02:40:44;4.07;;;1.48;;
57593;SDS011;43423;46.510;6.686;2023-07-31T02:43:09;2.70;;;1.60;;
57593;SDS011;43423;46.510;6.686;2023-07-31T02:45:35;4.13;;;1.73;;
57593;SDS011;43423;46.510;6.686;2023-07-31T02:48:01;3.20;;;2.08;;
57593;SDS011;43423;46.510;6.686;2023-07-31T02:50:26;3.25;;;1.63;;
57593;SDS011;43423;46.510;6.686;2023-07-31T02:52:53;4.25;;;2.03;;
57593;SDS011;43423;46.510;6.686;2023-07-31T02:55:19;1.60;;;1.48;;
57593;SDS011;43423;46.510;6.686;2023-07-31T02:57:45;4.70;;;1.83;;
57593;SDS011;43423;46.510;6.686;2023-07-31T03:00:10;4.82;;;1.73;;
57593;SDS011;43423;46.510;6.686;2023-07-31T03:02:36;4.57;;;1.60;;
57593;SDS011;43423;46.510;6.686;2023-07-31T03:05:01;2.35;;;1.75;;
57593;SDS011;43423;46.510;6.686;2023-07-31T03:07:27;4.13;;;1.75;;
57593;SDS011;43423;46.510;6.686;2023-07-31T03:09:54;3.05;;;1.70;;
57593;SDS011;43423;46.510;6.686;2023-07-31T03:12:19;2.67;;;1.60;;
57593;SDS011;43423;46.510;6.686;2023-07-31T03:14:45;3.30;;;2.00;;
57593;SDS011;43423;46.510;6.686;2023-07-31T03:17:10;6.72;;;1.95;;
57593;SDS011;43423;46.510;6.686;2023-07-31T03:19:36;2.80;;;1.73;;
57593;SDS011;43423;46.510;6.686;2023-07-31T03:22:01;5.82;;;2.20;;
57593;SDS011;43423;46.510;6.686;2023-07-31T03:24:27;3.83;;;3.13;;
57593;SDS011;43423;46.510;6.686;2023-07-31T03:26:53;4.22;;;2.20;;
57593;SDS011;43423;46.510;6.686;2023-07-31T03:29:19;5.63;;;2.17;;
57593;SDS011;43423;46.510;6.686;2023-07-31T03:31:44;2.70;;;1.67;;
57593;SDS011;43423;46.510;6.686;2023-07-31T03:34:10;2.90;;;1.92;;
57593;SDS011;43423;46.510;6.686;2023-07-31T03:36:36;4.70;;;2.17;;
57593;SDS011;43423;46.510;6.686;2023-07-31T03:39:02;5.93;;;2.30;;
57593;SDS011;43423;46.510;6.686;2023-07-31T03:41:28;4.50;;;1.77;;
57593;SDS011;43423;46.510;6.686;2023-07-31T03:43:54;3.70;;;1.70;;
57593;SDS011;43423;46.510;6.686;2023-07-31T03:46:22;4.10;;;1.98;;
57593;SDS011;43423;46.510;6.686;2023-07-31T03:48:49;3.42;;;1.50;;
57593;SDS011;43423;46.510;6.686;2023-07-31T03:51:15;6.32;;;2.35;;
57593;SDS011;43423;46.510;6.686;2023-07-31T03:53:43;4.80;;;1.92;;
57593;SDS011;43423;46.510;6.686;2023-07-31T03:56:09;3.95;;;2.10;;
57593;SDS011;43423;46.510;6.686;2023-07-31T03:58:35;5.82;;;1.90;;
57593;SDS011;43423;46.510;6.686;2023-07-31T04:01:02;3.53;;;2.40;;
57593;SDS011;43423;46.510;6.686;2023-07-31T04:03:28;4.28;;;2.08;;
57593;SDS011;43423;46.510;6.686;2023-07-31T04:05:54;4.85;;;2.20;;
57593;SDS011;43423;46.510;6.686;2023-07-31T04:08:23;5.22;;;2.03;;
57593;SDS011;43423;46.510;6.686;2023-07-31T04:10:49;3.53;;;1.85;;
57593;SDS011;43423;46.510;6.686;2023-07-31T04:13:16;5.20;;;2.03;;
57593;SDS011;43423;46.510;6.686;2023-07-31T04:15:41;6.97;;;3.33;;
57593;SDS011;43423;46.510;6.686;2023-07-31T04:18:07;6.28;;;2.45;;
57593;SDS011;43423;46.510;6.686;2023-07-31T04:20:32;3.33;;;1.83;;
57593;SDS011;43423;46.510;6.686;2023-07-31T04:22:58;4.25;;;2.03;;
57593;SDS011;43423;46.510;6.686;2023-07-31T04:25:24;6.90;;;2.35;;
57593;SDS011;43423;46.510;6.686;2023-07-31T04:27:49;4.60;;;2.08;;
57593;SDS011;43423;46.510;6.686;2023-07-31T04:30:15;4.90;;;2.05;;
57593;SDS011;43423;46.510;6.686;2023-07-31T04:32:40;5.72;;;2.17;;
57593;SDS011;43423;46.510;6.686;2023-07-31T04:35:06;5.30;;;2.25;;
57593;SDS011;43423;46.510;6.686;2023-07-31T04:37:32;9.25;;;3.47;;
57593;SDS011;43423;46.510;6.686;2023-07-31T04:39:57;8.98;;;3.30;;
57593;SDS011;43423;46.510;6.686;2023-07-31T04:42:23;6.10;;;2.15;;
57593;SDS011;43423;46.510;6.686;2023-07-31T04:44:48;7.65;;;2.30;;
57593;SDS011;43423;46.510;6.686;2023-07-31T04:47:14;6.80;;;2.58;;
57593;SDS011;43423;46.510;6.686;2023-07-31T04:49:39;5.68;;;2.08;;
57593;SDS011;43423;46.510;6.686;2023-07-31T04:52:05;6.03;;;2.20;;
57593;SDS011;43423;46.510;6.686;2023-07-31T04:54:31;16.33;;;2.67;;
57593;SDS011;43423;46.510;6.686;2023-07-31T04:56:59;5.72;;;2.20;;
57593;SDS011;43423;46.510;6.686;2023-07-31T04:59:25;4.78;;;2.13;;
57593;SDS011;43423;46.510;6.686;2023-07-31T05:01:50;6.75;;;2.65;;
57593;SDS011;43423;46.510;6.686;2023-07-31T05:04:16;4.88;;;2.38;;
57593;SDS011;43423;46.510;6.686;2023-07-31T05:06:42;6.63;;;2.50;;
57593;SDS011;43423;46.510;6.686;2023-07-31T05:09:07;3.35;;;2.00;;
57593;SDS011;43423;46.510;6.686;2023-07-31T05:11:34;4.03;;;2.30;;
57593;SDS011;43423;46.510;6.686;2023-07-31T05:14:00;8.02;;;2.53;;
57593;SDS011;43423;46.510;6.686;2023-07-31T05:16:26;4.88;;;2.67;;
57593;SDS011;43423;46.510;6.686;2023-07-31T05:18:52;7.85;;;2.63;;
57593;SDS011;43423;46.510;6.686;2023-07-31T05:21:17;5.65;;;2.97;;
57593;SDS011;43423;46.510;6.686;2023-07-31T05:23:43;9.27;;;2.80;;
57593;SDS011;43423;46.510;6.686;2023-07-31T05:26:08;8.93;;;2.92;;
57593;SDS011;43423;46.510;6.686;2023-07-31T05:28:37;6.57;;;3.08;;
57593;SDS011;43423;46.510;6.686;2023-07-31T05:31:03;4.40;;;2.50;;
57593;SDS011;43423;46.510;6.686;2023-07-31T05:33:29;5.50;;;2.60;;
57593;SDS011;43423;46.510;6.686;2023-07-31T05:35:56;8.18;;;3.20;;
57593;SDS011;43423;46.510;6.686;2023-07-31T05:38:22;12.38;;;3.10;;
57593;SDS011;43423;46.510;6.686;2023-07-31T05:40:48;4.75;;;2.60;;
57593;SDS011;43423;46.510;6.686;2023-07-31T05:43:13;7.57;;;3.10;;
57593;SDS011;43423;46.510;6.686;2023-07-31T05:45:41;8.07;;;3.10;;
57593;SDS011;43423;46.510;6.686;2023-07-31T05:48:07;6.53;;;3.20;;
57593;SDS011;43423;46.510;6.686;2023-07-31T05:50:33;10.38;;;3.20;;
57593;SDS011;43423;46.510;6.686;2023-07-31T05:52:58;10.48;;;2.85;;
57593;SDS011;43423;46.510;6.686;2023-07-31T05:55:24;7.45;;;3.45;;
57593;SDS011;43423;46.510;6.686;2023-07-31T05:57:52;10.80;;;3.47;;
57593;SDS011;43423;46.510;6.686;2023-07-31T06:00:18;10.43;;;3.90;;
57593;SDS011;43423;46.510;6.686;2023-07-31T06:02:44;6.70;;;2.78;;
57593;SDS011;43423;46.510;6.686;2023-07-31T06:05:09;11.02;;;3.00;;
57593;SDS011;43423;46.510;6.686;2023-07-31T06:07:35;6.90;;;2.55;;
57593;SDS011;43423;46.510;6.686;2023-07-31T06:10:01;7.75;;;3.20;;
57593;SDS011;43423;46.510;6.686;2023-07-31T06:12:30;7.32;;;2.92;;
57593;SDS011;43423;46.510;6.686;2023-07-31T06:14:56;9.10;;;3.33;;
57593;SDS011;43423;46.510;6.686;2023-07-31T06:17:22;10.20;;;3.20;;
57593;SDS011;43423;46.510;6.686;2023-07-31T06:19:48;11.23;;;3.38;;
57593;SDS011;43423;46.510;6.686;2023-07-31T06:22:14;5.45;;;2.53;;
57593;SDS011;43423;46.510;6.686;2023-07-31T06:24:40;9.15;;;3.40;;
57593;SDS011;43423;46.510;6.686;2023-07-31T06:27:05;12.88;;;3.47;;
57593;SDS011;43423;46.510;6.686;2023-07-31T06:29:31;9.90;;;2.90;;
57593;SDS011;43423;46.510;6.686;2023-07-31T06:31:57;6.07;;;2.85;;
57593;SDS011;43423;46.510;6.686;2023-07-31T06:34:23;9.10;;;3.05;;
57593;SDS011;43423;46.510;6.686;2023-07-31T06:36:48;7.50;;;3.17;;
57593;SDS011;43423;46.510;6.686;2023-07-31T06:39:14;7.95;;;3.63;;
57593;SDS011;43423;46.510;6.686;2023-07-31T06:41:40;7.22;;;3.40;;
57593;SDS011;43423;46.510;6.686;2023-07-31T06:44:05;8.30;;;3.65;;
57593;SDS011;43423;46.510;6.686;2023-07-31T06:46:31;5.90;;;2.88;;
57593;SDS011;43423;46.510;6.686;2023-07-31T06:48:57;12.10;;;3.15;;
57593;SDS011;43423;46.510;6.686;2023-07-31T06:51:22;7.60;;;3.30;;
57593;SDS011;43423;46.510;6.686;2023-07-31T06:53:48;11.25;;;3.97;;
57593;SDS011;43423;46.510;6.686;2023-07-31T06:56:13;10.27;;;3.50;;
57593;SDS011;43423;46.510;6.686;2023-07-31T06:58:39;11.10;;;4.30;;
57593;SDS011;43423;46.510;6.686;2023-07-31T07:01:04;11.18;;;4.13;;
57593;SDS011;43423;46.510;6.686;2023-07-31T07:03:30;9.02;;;3.72;;
57593;SDS011;43423;46.510;6.686;2023-07-31T07:05:55;7.47;;;3.28;;
57593;SDS011;43423;46.510;6.686;2023-07-31T07:08:21;10.07;;;3.88;;
57593;SDS011;43423;46.510;6.686;2023-07-31T07:10:47;8.02;;;3.70;;
57593;SDS011;43423;46.510;6.686;2023-07-31T07:13:13;6.70;;;3.67;;
57593;SDS011;43423;46.510;6.686;2023-07-31T07:15:38;7.43;;;3.28;;
57593;SDS011;43423;46.510;6.686;2023-07-31T07:18:04;12.07;;;3.63;;
57593;SDS011;43423;46.510;6.686;2023-07-31T07:20:30;10.85;;;3.72;;
57593;SDS011;43423;46.510;6.686;2023-07-31T07:22:56;8.90;;;3.50;;
57593;SDS011;43423;46.510;6.686;2023-07-31T07:25:21;8.40;;;3.63;;
57593;SDS011;43423;46.510;6.686;2023-07-31T07:27:47;9.32;;;3.80;;
57593;SDS011;43423;46.510;6.686;2023-07-31T07:30:12;10.52;;;3.25;;
57593;SDS011;43423;46.510;6.686;2023-07-31T07:32:39;10.45;;;3.47;;
57593;SDS011;43423;46.510;6.686;2023-07-31T07:35:05;8.45;;;3.58;;
57593;SDS011;43423;46.510;6.686;2023-07-31T07:37:31;9.27;;;3.28;;
57593;SDS011;43423;46.510;6.686;2023-07-31T07:39:57;7.18;;;4.05;;
57593;SDS011;43423;46.510;6.686;2023-07-31T07:42:25;8.73;;;3.67;;
57593;SDS011;43423;46.510;6.686;2023-07-31T07:44:51;10.20;;;3.40;;
57593;SDS011;43423;46.510;6.686;2023-07-31T07:47:16;9.52;;;3.58;;
57593;SDS011;43423;46.510;6.686;2023-07-31T07:49:42;11.55;;;3.05;;
57593;SDS011;43423;46.510;6.686;2023-07-31T07:52:08;10.60;;;3.33;;
57593;SDS011;43423;46.510;6.686;2023-07-31T07:54:33;8.82;;;3.55;;
57593;SDS011;43423;46.510;6.686;2023-07-31T07:56:59;8.65;;;2.65;;
57593;SDS011;43423;46.510;6.686;2023-07-31T07:59:24;6.28;;;2.95;;
57593;SDS011;43423;46.510;6.686;2023-07-31T08:01:50;7.50;;;2.97;;
57593;SDS011;43423;46.510;6.686;2023-07-31T08:04:15;7.32;;;3.00;;
57593;SDS011;43423;46.510;6.686;2023-07-31T08:06:41;9.18;;;3.42;;
57593;SDS011;43423;46.510;6.686;2023-07-31T08:09:06;7.15;;;3.00;;
57593;SDS011;43423;46.510;6.686;2023-07-31T08:11:33;8.68;;;2.55;;
57593;SDS011;43423;46.510;6.686;2023-07-31T08:13:59;11.18;;;3.35;;
57593;SDS011;43423;46.510;6.686;2023-07-31T08:16:25;9.48;;;2.72;;
57593;SDS011;43423;46.510;6.686;2023-07-31T08:18:50;13.15;;;3.20;;
57593;SDS011;43423;46.510;6.686;2023-07-31T08:21:16;9.52;;;3.15;;
57593;SDS011;43423;46.510;6.686;2023-07-31T08:23:42;10.52;;;3.10;;
57593;SDS011;43423;46.510;6.686;2023-07-31T08:26:07;7.50;;;3.10;;
57593;SDS011;43423;46.510;6.686;2023-07-31T08:28:33;12.63;;;3.45;;
57593;SDS011;43423;46.510;6.686;2023-07-31T08:31:00;7.57;;;3.30;;
57593;SDS011;43423;46.510;6.686;2023-07-31T08:33:25;8.40;;;3.03;;
57593;SDS011;43423;46.510;6.686;2023-07-31T08:35:51;9.27;;;2.90;;
57593;SDS011;43423;46.510;6.686;2023-07-31T08:38:16;14.68;;;3.42;;
57593;SDS011;43423;46.510;6.686;2023-07-31T08:40:42;8.82;;;3.35;;
57593;SDS011;43423;46.510;6.686;2023-07-31T08:43:08;10.45;;;2.97;;
57593;SDS011;43423;46.510;6.686;2023-07-31T08:45:34;9.68;;;3.17;;
57593;SDS011;43423;46.510;6.686;2023-07-31T08:47:59;9.77;;;3.17;;
57593;SDS011;43423;46.510;6.686;2023-07-31T08:50:25;12.05;;;2.80;;
57593;SDS011;43423;46.510;6.686;2023-07-31T08:52:51;7.90;;;3.00;;
57593;SDS011;43423;46.510;6.686;2023-07-31T08:55:18;7.88;;;3.30;;
57593;SDS011;43423;46.510;6.686;2023-07-31T08:57:48;7.97;;;2.83;;
57593;SDS011;43423;46.510;6.686;2023-07-31T09:00:17;7.70;;;2.78;;
57593;SDS011;43423;46.510;6.686;2023-07-31T09:02:46;8.60;;;2.97;;
57593;SDS011;43423;46.510;6.686;2023-07-31T09:05:17;8.88;;;3.30;;
57593;SDS011;43423;46.510;6.686;2023-07-31T09:07:43;8.75;;;4.15;;
57593;SDS011;43423;46.510;6.686;2023-07-31T09:10:12;11.25;;;3.53;;
57593;SDS011;43423;46.510;6.686;2023-07-31T09:12:38;11.40;;;2.75;;
57593;SDS011;43423;46.510;6.686;2023-07-31T09:15:04;4.85;;;2.40;;
57593;SDS011;43423;46.510;6.686;2023-07-31T09:17:31;6.50;;;3.03;;
57593;SDS011;43423;46.510;6.686;2023-07-31T09:22:42;6.32;;;3.17;;
57593;SDS011;43423;46.510;6.686;2023-07-31T09:25:19;6.50;;;2.92;;
57593;SDS011;43423;46.510;6.686;2023-07-31T09:27:57;9.52;;;3.10;;
57593;SDS011;43423;46.510;6.686;2023-07-31T09:30:24;9.80;;;2.80;;
57593;SDS011;43423;46.510;6.686;2023-07-31T09:32:51;7.93;;;2.85;;
57593;SDS011;43423;46.510;6.686;2023-07-31T09:37:58;9.87;;;2.83;;
57593;SDS011;43423;46.510;6.686;2023-07-31T09:40:29;7.88;;;2.35;;
57593;SDS011;43423;46.510;6.686;2023-07-31T09:42:56;8.60;;;2.63;;
57593;SDS011;43423;46.510;6.686;2023-07-31T09:45:24;6.95;;;2.10;;
57593;SDS011;43423;46.510;6.686;2023-07-31T09:47:50;5.20;;;2.25;;
57593;SDS011;43423;46.510;6.686;2023-07-31T09:50:16;7.85;;;2.30;;
57593;SDS011;43423;46.510;6.686;2023-07-31T09:52:43;9.00;;;2.08;;
57593;SDS011;43423;46.510;6.686;2023-07-31T09:55:09;5.50;;;2.85;;
57593;SDS011;43423;46.510;6.686;2023-07-31T09:57:39;6.25;;;2.70;;
57593;SDS011;43423;46.510;6.686;2023-07-31T10:00:08;7.55;;;2.58;;
57593;SDS011;43423;46.510;6.686;2023-07-31T10:02:35;7.75;;;2.85;;
57593;SDS011;43423;46.510;6.686;2023-07-31T10:05:02;7.25;;;2.58;;
57593;SDS011;43423;46.510;6.686;2023-07-31T10:07:30;6.25;;;2.90;;
57593;SDS011;43423;46.510;6.686;2023-07-31T10:10:00;6.20;;;2.50;;
57593;SDS011;43423;46.510;6.686;2023-07-31T10:12:27;7.60;;;2.47;;
57593;SDS011;43423;46.510;6.686;2023-07-31T10:14:56;5.93;;;2.77;;
57593;SDS011;43423;46.510;6.686;2023-07-31T10:17:25;7.63;;;2.85;;
57593;SDS011;43423;46.510;6.686;2023-07-31T10:19:51;12.15;;;2.80;;
57593;SDS011;43423;46.510;6.686;2023-07-31T10:22:19;6.78;;;2.90;;
57593;SDS011;43423;46.510;6.686;2023-07-31T10:24:46;6.32;;;2.60;;
57593;SDS011;43423;46.510;6.686;2023-07-31T10:27:12;5.82;;;2.47;;
57593;SDS011;43423;46.510;6.686;2023-07-31T10:29:38;7.07;;;2.58;;
57593;SDS011;43423;46.510;6.686;2023-07-31T10:32:05;5.40;;;2.33;;
57593;SDS011;43423;46.510;6.686;2023-07-31T10:34:35;5.72;;;2.78;;
57593;SDS011;43423;46.510;6.686;2023-07-31T10:42:29;7.78;;;2.40;;
57593;SDS011;43423;46.510;6.686;2023-07-31T10:44:59;9.60;;;2.35;;
57593;SDS011;43423;46.510;6.686;2023-07-31T10:47:27;6.10;;;2.58;;
57593;SDS011;43423;46.510;6.686;2023-07-31T10:49:52;6.43;;;2.47;;
57593;SDS011;43423;46.510;6.686;2023-07-31T10:52:27;7.57;;;2.95;;
57593;SDS011;43423;46.510;6.686;2023-07-31T10:58:11;9.27;;;2.78;;
57593;SDS011;43423;46.510;6.686;2023-07-31T11:00:38;8.38;;;2.95;;
57593;SDS011;43423;46.510;6.686;2023-07-31T11:03:06;5.20;;;2.30;;
57593;SDS011;43423;46.510;6.686;2023-07-31T11:08:29;6.43;;;2.33;;
57593;SDS011;43423;46.510;6.686;2023-07-31T11:11:13;5.45;;;1.70;;
57593;SDS011;43423;46.510;6.686;2023-07-31T11:13:44;4.88;;;2.10;;
57593;SDS011;43423;46.510;6.686;2023-07-31T11:16:15;18.67;;;3.13;;
57593;SDS011;43423;46.510;6.686;2023-07-31T11:18:42;8.07;;;2.25;;
57593;SDS011;43423;46.510;6.686;2023-07-31T11:21:11;7.35;;;2.75;;
57593;SDS011;43423;46.510;6.686;2023-07-31T11:23:45;9.07;;;2.25;;
57593;SDS011;43423;46.510;6.686;2023-07-31T11:26:15;8.40;;;2.67;;
57593;SDS011;43423;46.510;6.686;2023-07-31T11:28:41;7.45;;;2.83;;
57593;SDS011;43423;46.510;6.686;2023-07-31T11:31:10;10.52;;;2.67;;
57593;SDS011;43423;46.510;6.686;2023-07-31T11:33:36;7.65;;;2.00;;
57593;SDS011;43423;46.510;6.686;2023-07-31T11:36:02;9.77;;;3.08;;
57593;SDS011;43423;46.510;6.686;2023-07-31T11:38:31;6.75;;;2.72;;
57593;SDS011;43423;46.510;6.686;2023-07-31T11:41:02;4.63;;;2.38;;
57593;SDS011;43423;46.510;6.686;2023-07-31T11:43:28;8.32;;;2.45;;
57593;SDS011;43423;46.510;6.686;2023-07-31T11:45:55;8.90;;;2.75;;
57593;SDS011;43423;46.510;6.686;2023-07-31T11:48:22;8.85;;;2.83;;
57593;SDS011;43423;46.510;6.686;2023-07-31T11:50:59;4.63;;;2.35;;
57593;SDS011;43423;46.510;6.686;2023-07-31T11:56:09;7.88;;;2.42;;
57593;SDS011;43423;46.510;6.686;2023-07-31T11:58:38;5.60;;;2.40;;
57593;SDS011;43423;46.510;6.686;2023-07-31T12:01:04;9.52;;;2.50;;
57593;SDS011;43423;46.510;6.686;2023-07-31T12:03:30;6.30;;;2.58;;
57593;SDS011;43423;46.510;6.686;2023-07-31T12:05:58;7.25;;;2.38;;
57593;SDS011;43423;46.510;6.686;2023-07-31T12:08:24;4.30;;;1.92;;
57593;SDS011;43423;46.510;6.686;2023-07-31T12:10:54;6.85;;;2.47;;
57593;SDS011;43423;46.510;6.686;2023-07-31T12:13:20;4.35;;;2.28;;
57593;SDS011;43423;46.510;6.686;2023-07-31T12:15:48;6.22;;;1.95;;
57593;SDS011;43423;46.510;6.686;2023-07-31T12:18:14;6.20;;;2.22;;
57593;SDS011;43423;46.510;6.686;2023-07-31T12:20:45;5.60;;;2.20;;
57593;SDS011;43423;46.510;6.686;2023-07-31T12:23:19;8.45;;;2.15;;
57593;SDS011;43423;46.510;6.686;2023-07-31T12:25:59;4.85;;;1.85;;
57593;SDS011;43423;46.510;6.686;2023-07-31T12:28:29;3.85;;;2.15;;
57593;SDS011;43423;46.510;6.686;2023-07-31T12:30:59;3.22;;;2.17;;
57593;SDS011;43423;46.510;6.686;2023-07-31T12:33:30;8.43;;;2.42;;
57593;SDS011;43423;46.510;6.686;2023-07-31T12:35:57;6.05;;;2.33;;
57593;SDS011;43423;46.510;6.686;2023-07-31T12:38:23;4.60;;;2.00;;
57593;SDS011;43423;46.510;6.686;2023-07-31T12:40:48;5.25;;;2.13;;
57593;SDS011;43423;46.510;6.686;2023-07-31T12:43:14;6.53;;;2.20;;
57593;SDS011;43423;46.510;6.686;2023-07-31T12:45:39;4.47;;;2.20;;
57593;SDS011;43423;46.510;6.686;2023-07-31T12:48:05;8.68;;;2.50;;
57593;SDS011;43423;46.510;6.686;2023-07-31T12:50:30;5.28;;;2.20;;
57593;SDS011;43423;46.510;6.686;2023-07-31T12:52:56;5.53;;;2.42;;
57593;SDS011;43423;46.510;6.686;2023-07-31T12:55:22;4.88;;;2.40;;
57593;SDS011;43423;46.510;6.686;2023-07-31T12:57:49;5.65;;;2.10;;
57593;SDS011;43423;46.510;6.686;2023-07-31T13:00:15;6.43;;;2.05;;
57593;SDS011;43423;46.510;6.686;2023-07-31T13:02:41;5.70;;;2.03;;
57593;SDS011;43423;46.510;6.686;2023-07-31T13:05:06;4.88;;;2.30;;
57593;SDS011;43423;46.510;6.686;2023-07-31T13:07:32;5.63;;;2.17;;
57593;SDS011;43423;46.510;6.686;2023-07-31T13:09:58;4.75;;;2.47;;
57593;SDS011;43423;46.510;6.686;2023-07-31T13:12:23;4.35;;;2.05;;
57593;SDS011;43423;46.510;6.686;2023-07-31T13:14:49;5.45;;;2.20;;
57593;SDS011;43423;46.510;6.686;2023-07-31T13:17:15;5.97;;;2.10;;
57593;SDS011;43423;46.510;6.686;2023-07-31T13:19:41;5.47;;;2.10;;
57593;SDS011;43423;46.510;6.686;2023-07-31T13:22:07;3.88;;;1.90;;
57593;SDS011;43423;46.510;6.686;2023-07-31T13:24:33;5.25;;;2.22;;
57593;SDS011;43423;46.510;6.686;2023-07-31T13:26:58;5.07;;;1.88;;
57593;SDS011;43423;46.510;6.686;2023-07-31T13:29:24;4.85;;;2.15;;
57593;SDS011;43423;46.510;6.686;2023-07-31T13:31:49;5.78;;;2.10;;
57593;SDS011;43423;46.510;6.686;2023-07-31T13:34:15;5.55;;;2.63;;
57593;SDS011;43423;46.510;6.686;2023-07-31T13:36:40;2.75;;;1.88;;
57593;SDS011;43423;46.510;6.686;2023-07-31T13:39:07;6.35;;;2.13;;
57593;SDS011;43423;46.510;6.686;2023-07-31T13:41:32;8.52;;;2.05;;
57593;SDS011;43423;46.510;6.686;2023-07-31T13:43:58;3.90;;;2.10;;
57593;SDS011;43423;46.510;6.686;2023-07-31T13:46:23;4.78;;;1.85;;
57593;SDS011;43423;46.510;6.686;2023-07-31T13:48:51;3.65;;;1.80;;
57593;SDS011;43423;46.510;6.686;2023-07-31T13:51:19;5.53;;;2.17;;
57593;SDS011;43423;46.510;6.686;2023-07-31T13:53:45;5.35;;;2.33;;
57593;SDS011;43423;46.510;6.686;2023-07-31T13:56:11;6.63;;;2.22;;
57593;SDS011;43423;46.510;6.686;2023-07-31T13:58:36;4.65;;;1.98;;
57593;SDS011;43423;46.510;6.686;2023-07-31T14:01:02;5.95;;;2.28;;
57593;SDS011;43423;46.510;6.686;2023-07-31T14:03:28;4.32;;;2.30;;
57593;SDS011;43423;46.510;6.686;2023-07-31T14:05:54;4.78;;;2.00;;
57593;SDS011;43423;46.510;6.686;2023-07-31T14:08:21;4.85;;;2.08;;
57593;SDS011;43423;46.510;6.686;2023-07-31T14:10:46;4.78;;;2.60;;
57593;SDS011;43423;46.510;6.686;2023-07-31T14:13:12;3.58;;;2.13;;
57593;SDS011;43423;46.510;6.686;2023-07-31T14:15:38;4.40;;;2.30;;
57593;SDS011;43423;46.510;6.686;2023-07-31T14:18:05;3.58;;;2.10;;
57593;SDS011;43423;46.510;6.686;2023-07-31T14:20:30;3.97;;;2.15;;
57593;SDS011;43423;46.510;6.686;2023-07-31T14:22:56;6.28;;;2.22;;
57593;SDS011;43423;46.510;6.686;2023-07-31T14:25:21;4.25;;;2.17;;
57593;SDS011;43423;46.510;6.686;2023-07-31T14:27:47;8.85;;;2.38;;
57593;SDS011;43423;46.510;6.686;2023-07-31T14:30:12;3.83;;;1.77;;
57593;SDS011;43423;46.510;6.686;2023-07-31T14:32:38;8.50;;;2.30;;
57593;SDS011;43423;46.510;6.686;2023-07-31T14:35:04;3.88;;;2.10;;
57593;SDS011;43423;46.510;6.686;2023-07-31T14:37:40;4.82;;;2.10;;
57593;SDS011;43423;46.510;6.686;2023-07-31T14:40:08;5.15;;;2.30;;
57593;SDS011;43423;46.510;6.686;2023-07-31T14:42:35;7.35;;;2.20;;
57593;SDS011;43423;46.510;6.686;2023-07-31T14:45:01;8.35;;;2.50;;
57593;SDS011;43423;46.510;6.686;2023-07-31T14:47:27;3.72;;;2.22;;
57593;SDS011;43423;46.510;6.686;2023-07-31T14:49:52;3.50;;;2.00;;
57593;SDS011;43423;46.510;6.686;2023-07-31T14:52:18;3.42;;;2.10;;
57593;SDS011;43423;46.510;6.686;2023-07-31T14:54:44;4.18;;;2.20;;
57593;SDS011;43423;46.510;6.686;2023-07-31T14:57:10;5.72;;;2.08;;
57593;SDS011;43423;46.510;6.686;2023-07-31T14:59:36;4.15;;;2.30;;
57593;SDS011;43423;46.510;6.686;2023-07-31T15:02:01;5.63;;;2.13;;
57593;SDS011;43423;46.510;6.686;2023-07-31T15:04:27;3.25;;;2.10;;
57593;SDS011;43423;46.510;6.686;2023-07-31T15:06:53;4.18;;;1.95;;
57593;SDS011;43423;46.510;6.686;2023-07-31T15:09:18;6.07;;;2.50;;